sensor_id;sensor_type;location;lat;lon;timestamp;temperature;humidity
1021;DHT22;499;42.648;23.270;2023-11-21T00:00:40;4.60;92.50
1021;DHT22;499;42.648;23.270;2023-11-21T00:03:51;4.70;92.10
1021;DHT22;499;42.648;23.270;2023-11-21T00:06:47;4.80;92.40
1021;DHT22;499;42.648;23.270;2023-11-21T00:09:35;4.90;91.00
1021;DHT22;499;42.648;23.270;2023-11-21T00:12:21;5.00;90.00
1021;DHT22;499;42.648;23.270;2023-11-21T00:15:05;5.00;87.90
1021;DHT22;499;42.648;23.270;2023-11-21T00:18:15;5.10;87.70
1021;DHT22;499;42.648;23.270;2023-11-21T00:21:08;5.00;85.40
1021;DHT22;499;42.648;23.270;2023-11-21T00:23:46;4.90;85.50
1021;DHT22;499;42.648;23.270;2023-11-21T00:26:26;4.80;88.70
1021;DHT22;499;42.648;23.270;2023-11-21T00:29:10;4.80;89.20
1021;DHT22;499;42.648;23.270;2023-11-21T00:31:53;4.80;89.10
1021;DHT22;499;42.648;23.270;2023-11-21T00:34:43;4.80;89.70
1021;DHT22;499;42.648;23.270;2023-11-21T00:37:19;4.70;91.00
1021;DHT22;499;42.648;23.270;2023-11-21T00:39:58;4.80;91.30
1021;DHT22;499;42.648;23.270;2023-11-21T00:42:33;4.80;91.00
1021;DHT22;499;42.648;23.270;2023-11-21T00:45:13;4.70;91.30
1021;DHT22;499;42.648;23.270;2023-11-21T00:47:48;4.80;91.30
1021;DHT22;499;42.648;23.270;2023-11-21T00:50:28;4.90;91.00
1021;DHT22;499;42.648;23.270;2023-11-21T00:53:13;4.80;91.00
1021;DHT22;499;42.648;23.270;2023-11-21T00:56:04;4.90;91.10
1021;DHT22;499;42.648;23.270;2023-11-21T00:59:10;5.00;90.40
1021;DHT22;499;42.648;23.270;2023-11-21T01:01:50;4.90;88.10
1021;DHT22;499;42.648;23.270;2023-11-21T01:04:29;4.90;87.00
1021;DHT22;499;42.648;23.270;2023-11-21T01:07:33;4.90;85.00
1021;DHT22;499;42.648;23.270;2023-11-21T01:10:14;4.70;83.20
1021;DHT22;499;42.648;23.270;2023-11-21T01:13:06;4.60;89.20
1021;DHT22;499;42.648;23.270;2023-11-21T01:16:01;4.70;87.70
1021;DHT22;499;42.648;23.270;2023-11-21T01:18:43;4.50;85.80
1021;DHT22;499;42.648;23.270;2023-11-21T01:21:16;4.10;87.90
1021;DHT22;499;42.648;23.270;2023-11-21T01:23:48;4.30;86.80
1021;DHT22;499;42.648;23.270;2023-11-21T01:26:32;4.20;90.30
1021;DHT22;499;42.648;23.270;2023-11-21T01:29:11;4.10;90.70
1021;DHT22;499;42.648;23.270;2023-11-21T01:31:53;3.90;92.30
1021;DHT22;499;42.648;23.270;2023-11-21T01:34:25;3.70;94.10
1021;DHT22;499;42.648;23.270;2023-11-21T01:36:54;4.00;94.30
1021;DHT22;499;42.648;23.270;2023-11-21T01:39:23;4.00;93.20
1021;DHT22;499;42.648;23.270;2023-11-21T01:41:53;3.90;94.60
1021;DHT22;499;42.648;23.270;2023-11-21T01:44:31;3.70;93.60
1021;DHT22;499;42.648;23.270;2023-11-21T01:47:21;3.60;95.30
1021;DHT22;499;42.648;23.270;2023-11-21T01:49:51;3.60;96.40
1021;DHT22;499;42.648;23.270;2023-11-21T01:52:27;3.60;97.20
1021;DHT22;499;42.648;23.270;2023-11-21T01:55:46;3.60;98.30
1021;DHT22;499;42.648;23.270;2023-11-21T01:59:08;3.40;98.20
1021;DHT22;499;42.648;23.270;2023-11-21T02:02:22;3.30;99.70
1021;DHT22;499;42.648;23.270;2023-11-21T02:04:58;3.40;99.90
1021;DHT22;499;42.648;23.270;2023-11-21T02:07:27;3.30;99.90
1021;DHT22;499;42.648;23.270;2023-11-21T02:09:56;3.30;99.90
1021;DHT22;499;42.648;23.270;2023-11-21T02:12:36;3.30;99.90
1021;DHT22;499;42.648;23.270;2023-11-21T02:15:33;3.30;99.90
1021;DHT22;499;42.648;23.270;2023-11-21T02:18:23;3.30;99.90
1021;DHT22;499;42.648;23.270;2023-11-21T02:21:09;3.40;99.90
1021;DHT22;499;42.648;23.270;2023-11-21T02:24:06;3.50;99.90
1021;DHT22;499;42.648;23.270;2023-11-21T02:27:01;3.40;99.90
1021;DHT22;499;42.648;23.270;2023-11-21T02:30:10;3.30;99.90
1021;DHT22;499;42.648;23.270;2023-11-21T02:33:28;3.40;99.90
1021;DHT22;499;42.648;23.270;2023-11-21T02:36:20;3.40;99.90
1021;DHT22;499;42.648;23.270;2023-11-21T02:46:02;3.30;99.90
1021;DHT22;499;42.648;23.270;2023-11-21T02:48:39;3.30;99.90
1021;DHT22;499;42.648;23.270;2023-11-21T02:51:28;3.20;99.90
1021;DHT22;499;42.648;23.270;2023-11-21T02:54:10;3.30;99.90
1021;DHT22;499;42.648;23.270;2023-11-21T02:56:52;3.20;99.90
1021;DHT22;499;42.648;23.270;2023-11-21T02:59:29;3.20;99.90
1021;DHT22;499;42.648;23.270;2023-11-21T03:02:27;3.30;99.90
1021;DHT22;499;42.648;23.270;2023-11-21T03:05:00;3.20;99.90
1021;DHT22;499;42.648;23.270;2023-11-21T03:07:52;3.20;99.90
1021;DHT22;499;42.648;23.270;2023-11-21T03:10:26;3.20;99.90
1021;DHT22;499;42.648;23.270;2023-11-21T03:13:02;3.30;99.90
1021;DHT22;499;42.648;23.270;2023-11-21T03:15:49;3.30;99.90
1021;DHT22;499;42.648;23.270;2023-11-21T03:18:50;3.30;99.90
1021;DHT22;499;42.648;23.270;2023-11-21T03:21:53;3.30;99.90
1021;DHT22;499;42.648;23.270;2023-11-21T03:24:47;3.20;99.90
1021;DHT22;499;42.648;23.270;2023-11-21T03:27:27;3.30;99.90
1021;DHT22;499;42.648;23.270;2023-11-21T03:30:15;3.30;99.90
1021;DHT22;499;42.648;23.270;2023-11-21T03:33:23;3.30;99.90
1021;DHT22;499;42.648;23.270;2023-11-21T03:36:10;3.40;99.90
1021;DHT22;499;42.648;23.270;2023-11-21T03:38:47;3.50;99.90
1021;DHT22;499;42.648;23.270;2023-11-21T03:41:45;3.60;99.90
1021;DHT22;499;42.648;23.270;2023-11-21T03:44:37;3.60;99.90
1021;DHT22;499;42.648;23.270;2023-11-21T03:47:22;3.60;99.90
1021;DHT22;499;42.648;23.270;2023-11-21T03:50:16;3.60;99.90
1021;DHT22;499;42.648;23.270;2023-11-21T03:56:14;3.70;99.90
1021;DHT22;499;42.648;23.270;2023-11-21T03:58:58;3.50;99.70
1021;DHT22;499;42.648;23.270;2023-11-21T04:02:28;3.50;99.90
1021;DHT22;499;42.648;23.270;2023-11-21T04:05:25;3.50;99.90
1021;DHT22;499;42.648;23.270;2023-11-21T04:08:34;3.70;99.90
1021;DHT22;499;42.648;23.270;2023-11-21T04:11:48;3.80;99.90
1021;DHT22;499;42.648;23.270;2023-11-21T04:14:36;3.70;99.40
1021;DHT22;499;42.648;23.270;2023-11-21T04:17:19;3.60;99.00
1021;DHT22;499;42.648;23.270;2023-11-21T04:19:55;3.60;99.50
1021;DHT22;499;42.648;23.270;2023-11-21T04:22:45;3.70;99.90
1021;DHT22;499;42.648;23.270;2023-11-21T04:25:50;3.80;99.90
1021;DHT22;499;42.648;23.270;2023-11-21T04:28:43;3.90;98.80
1021;DHT22;499;42.648;23.270;2023-11-21T04:31:37;3.70;97.30
1021;DHT22;499;42.648;23.270;2023-11-21T04:34:07;3.80;98.40
1021;DHT22;499;42.648;23.270;2023-11-21T04:36:50;3.80;98.40
1021;DHT22;499;42.648;23.270;2023-11-21T04:39:26;3.80;97.00
1021;DHT22;499;42.648;23.270;2023-11-21T04:41:58;3.80;97.50
1021;DHT22;499;42.648;23.270;2023-11-21T04:44:38;3.70;96.80
1021;DHT22;499;42.648;23.270;2023-11-21T04:47:47;3.80;97.80
1021;DHT22;499;42.648;23.270;2023-11-21T04:50:19;2.50;95.90
1021;DHT22;499;42.648;23.270;2023-11-21T04:52:53;3.60;96.70
1021;DHT22;499;42.648;23.270;2023-11-21T04:55:49;3.70;97.40
1021;DHT22;499;42.648;23.270;2023-11-21T04:58:24;3.60;97.30
1021;DHT22;499;42.648;23.270;2023-11-21T05:00:55;3.60;98.10
1021;DHT22;499;42.648;23.270;2023-11-21T05:03:25;3.50;98.50
1021;DHT22;499;42.648;23.270;2023-11-21T05:05:56;3.60;98.60
1021;DHT22;499;42.648;23.270;2023-11-21T05:08:27;3.60;98.30
1021;DHT22;499;42.648;23.270;2023-11-21T05:10:57;3.60;99.70
1021;DHT22;499;42.648;23.270;2023-11-21T05:13:28;3.70;99.30
1021;DHT22;499;42.648;23.270;2023-11-21T05:16:20;3.70;98.70
1021;DHT22;499;42.648;23.270;2023-11-21T05:19:07;3.70;99.00
1021;DHT22;499;42.648;23.270;2023-11-21T05:21:42;3.70;99.20
1021;DHT22;499;42.648;23.270;2023-11-21T05:24:33;3.60;99.50
1021;DHT22;499;42.648;23.270;2023-11-21T05:30:49;3.90;99.90
1021;DHT22;499;42.648;23.270;2023-11-21T05:33:33;4.00;99.50
1021;DHT22;499;42.648;23.270;2023-11-21T05:36:37;3.80;98.30
1021;DHT22;499;42.648;23.270;2023-11-21T05:39:28;3.90;99.00
1021;DHT22;499;42.648;23.270;2023-11-21T05:42:06;3.90;98.80
1021;DHT22;499;42.648;23.270;2023-11-21T05:44:58;3.80;98.40
1021;DHT22;499;42.648;23.270;2023-11-21T05:47:52;3.70;98.40
1021;DHT22;499;42.648;23.270;2023-11-21T05:50:31;3.70;99.70
1021;DHT22;499;42.648;23.270;2023-11-21T05:53:23;3.90;99.90
1021;DHT22;499;42.648;23.270;2023-11-21T05:56:18;4.00;99.90
1021;DHT22;499;42.648;23.270;2023-11-21T05:58:59;3.80;98.40
1021;DHT22;499;42.648;23.270;2023-11-21T06:01:32;4.00;99.50
1021;DHT22;499;42.648;23.270;2023-11-21T06:04:13;4.10;99.00
1021;DHT22;499;42.648;23.270;2023-11-21T06:06:54;4.20;97.90
1021;DHT22;499;42.648;23.270;2023-11-21T06:09:27;4.30;96.70
1021;DHT22;499;42.648;23.270;2023-11-21T06:12:04;4.10;96.60
1021;DHT22;499;42.648;23.270;2023-11-21T06:14:45;4.20;96.80
1021;DHT22;499;42.648;23.270;2023-11-21T06:17:25;4.40;96.70
1021;DHT22;499;42.648;23.270;2023-11-21T06:19:57;4.50;95.50
1021;DHT22;499;42.648;23.270;2023-11-21T06:22:44;4.60;94.10
1021;DHT22;499;42.648;23.270;2023-11-21T06:25:25;4.60;93.20
1021;DHT22;499;42.648;23.270;2023-11-21T06:28:04;4.70;91.90
1021;DHT22;499;42.648;23.270;2023-11-21T06:30:43;4.50;90.90
1021;DHT22;499;42.648;23.270;2023-11-21T06:33:29;4.70;92.80
1021;DHT22;499;42.648;23.270;2023-11-21T06:36:06;4.80;92.00
1021;DHT22;499;42.648;23.270;2023-11-21T06:39:02;4.90;91.00
1021;DHT22;499;42.648;23.270;2023-11-21T06:41:46;5.00;86.40
1021;DHT22;499;42.648;23.270;2023-11-21T06:44:22;4.80;86.70
1021;DHT22;499;42.648;23.270;2023-11-21T06:47:01;4.60;86.50
1021;DHT22;499;42.648;23.270;2023-11-21T06:49:39;4.60;88.50
1021;DHT22;499;42.648;23.270;2023-11-21T06:52:34;4.70;88.70
1021;DHT22;499;42.648;23.270;2023-11-21T06:55:39;4.70;89.70
1021;DHT22;499;42.648;23.270;2023-11-21T06:58:36;4.80;86.00
1021;DHT22;499;42.648;23.270;2023-11-21T07:01:25;4.60;85.50
1021;DHT22;499;42.648;23.270;2023-11-21T07:04:00;4.60;87.10
1021;DHT22;499;42.648;23.270;2023-11-21T07:06:32;4.70;90.00
1021;DHT22;499;42.648;23.270;2023-11-21T07:09:08;4.80;90.60
1021;DHT22;499;42.648;23.270;2023-11-21T07:12:06;4.90;89.60
1021;DHT22;499;42.648;23.270;2023-11-21T07:15:00;5.00;89.30
1021;DHT22;499;42.648;23.270;2023-11-21T07:18:39;5.40;88.90
1021;DHT22;499;42.648;23.270;2023-11-21T07:21:39;5.10;84.60
1021;DHT22;499;42.648;23.270;2023-11-21T07:24:36;5.20;84.10
1021;DHT22;499;42.648;23.270;2023-11-21T07:27:22;5.20;83.00
1021;DHT22;499;42.648;23.270;2023-11-21T07:30:05;5.30;81.50
1021;DHT22;499;42.648;23.270;2023-11-21T07:33:13;5.20;83.60
1021;DHT22;499;42.648;23.270;2023-11-21T07:35:58;5.20;83.60
1021;DHT22;499;42.648;23.270;2023-11-21T07:38:27;5.10;86.10
1021;DHT22;499;42.648;23.270;2023-11-21T07:40:58;5.20;88.50
1021;DHT22;499;42.648;23.270;2023-11-21T07:43:28;5.20;89.90
1021;DHT22;499;42.648;23.270;2023-11-21T07:46:02;5.30;90.70
1021;DHT22;499;42.648;23.270;2023-11-21T07:48:38;5.40;88.30
1021;DHT22;499;42.648;23.270;2023-11-21T07:51:18;5.40;89.20
1021;DHT22;499;42.648;23.270;2023-11-21T07:53:52;5.60;88.50
1021;DHT22;499;42.648;23.270;2023-11-21T07:56:37;5.70;85.40
1021;DHT22;499;42.648;23.270;2023-11-21T07:59:28;5.80;84.20
1021;DHT22;499;42.648;23.270;2023-11-21T08:02:15;5.80;79.60
1021;DHT22;499;42.648;23.270;2023-11-21T08:05:09;5.60;79.40
1021;DHT22;499;42.648;23.270;2023-11-21T08:08:19;5.80;84.20
1021;DHT22;499;42.648;23.270;2023-11-21T08:11:00;5.90;81.60
1021;DHT22;499;42.648;23.270;2023-11-21T08:13:35;6.00;81.50
1021;DHT22;499;42.648;23.270;2023-11-21T08:16:24;6.10;81.20
1021;DHT22;499;42.648;23.270;2023-11-21T08:19:17;6.20;76.60
1021;DHT22;499;42.648;23.270;2023-11-21T08:22:19;6.40;76.50
1021;DHT22;499;42.648;23.270;2023-11-21T08:25:32;6.50;71.80
1021;DHT22;499;42.648;23.270;2023-11-21T08:28:14;6.40;70.80
1021;DHT22;499;42.648;23.270;2023-11-21T08:30:48;6.70;75.80
1021;DHT22;499;42.648;23.270;2023-11-21T08:33:22;6.90;73.90
1021;DHT22;499;42.648;23.270;2023-11-21T08:35:53;7.10;64.40
1021;DHT22;499;42.648;23.270;2023-11-21T08:38:22;7.10;62.50
1021;DHT22;499;42.648;23.270;2023-11-21T08:41:05;7.10;62.50
1021;DHT22;499;42.648;23.270;2023-11-21T08:43:51;7.20;61.90
1021;DHT22;499;42.648;23.270;2023-11-21T08:46:32;7.20;60.40
1021;DHT22;499;42.648;23.270;2023-11-21T08:49:37;7.30;60.40
1021;DHT22;499;42.648;23.270;2023-11-21T08:52:20;7.40;60.80
1021;DHT22;499;42.648;23.270;2023-11-21T08:55:10;7.50;57.70
1021;DHT22;499;42.648;23.270;2023-11-21T08:57:49;7.60;54.10
1021;DHT22;499;42.648;23.270;2023-11-21T09:00:25;7.80;56.10
1021;DHT22;499;42.648;23.270;2023-11-21T09:03:24;7.90;53.40
1021;DHT22;499;42.648;23.270;2023-11-21T09:06:08;7.90;48.90
1021;DHT22;499;42.648;23.270;2023-11-21T09:08:38;7.80;51.70
1021;DHT22;499;42.648;23.270;2023-11-21T09:12:04;7.90;53.40
1021;DHT22;499;42.648;23.270;2023-11-21T09:14:57;8.10;50.30
1021;DHT22;499;42.648;23.270;2023-11-21T09:17:55;8.30;47.30
1021;DHT22;499;42.648;23.270;2023-11-21T09:20:53;8.20;49.20
1021;DHT22;499;42.648;23.270;2023-11-21T09:23:58;8.30;45.90
1021;DHT22;499;42.648;23.270;2023-11-21T09:26:57;8.20;45.90
1021;DHT22;499;42.648;23.270;2023-11-21T09:29:27;8.60;46.70
1021;DHT22;499;42.648;23.270;2023-11-21T09:31:58;8.60;44.20
1021;DHT22;499;42.648;23.270;2023-11-21T09:34:28;8.40;44.10
1021;DHT22;499;42.648;23.270;2023-11-21T09:37:00;8.30;46.50
1021;DHT22;499;42.648;23.270;2023-11-21T09:39:46;8.30;45.00
1021;DHT22;499;42.648;23.270;2023-11-21T09:42:23;8.10;46.10
1021;DHT22;499;42.648;23.270;2023-11-21T09:44:56;8.10;47.40
1021;DHT22;499;42.648;23.270;2023-11-21T09:47:29;7.90;46.70
1021;DHT22;499;42.648;23.270;2023-11-21T09:50:11;7.90;50.10
1021;DHT22;499;42.648;23.270;2023-11-21T09:52:57;8.00;49.00
1021;DHT22;499;42.648;23.270;2023-11-21T09:55:36;8.20;44.60
1021;DHT22;499;42.648;23.270;2023-11-21T09:58:13;8.20;44.60
1021;DHT22;499;42.648;23.270;2023-11-21T10:00:47;8.50;43.70
1021;DHT22;499;42.648;23.270;2023-11-21T10:03:28;8.70;43.20
1021;DHT22;499;42.648;23.270;2023-11-21T10:06:06;8.90;43.70
1021;DHT22;499;42.648;23.270;2023-11-21T10:08:44;9.10;40.70
1021;DHT22;499;42.648;23.270;2023-11-21T10:11:20;9.10;39.70
1021;DHT22;499;42.648;23.270;2023-11-21T10:14:20;9.10;40.70
1021;DHT22;499;42.648;23.270;2023-11-21T10:17:03;9.10;40.70
1021;DHT22;499;42.648;23.270;2023-11-21T10:19:58;9.40;41.00
1021;DHT22;499;42.648;23.270;2023-11-21T10:22:57;9.50;36.70
1021;DHT22;499;42.648;23.270;2023-11-21T10:25:41;9.70;37.80
1021;DHT22;499;42.648;23.270;2023-11-21T10:28:41;9.80;32.80
1021;DHT22;499;42.648;23.270;2023-11-21T10:31:44;9.70;35.60
1021;DHT22;499;42.648;23.270;2023-11-21T10:34:20;9.40;33.10
1021;DHT22;499;42.648;23.270;2023-11-21T10:37:17;9.70;32.70
1021;DHT22;499;42.648;23.270;2023-11-21T10:40:14;9.80;33.60
1021;DHT22;499;42.648;23.270;2023-11-21T10:43:09;9.80;31.70
1021;DHT22;499;42.648;23.270;2023-11-21T10:46:21;9.90;31.80
1021;DHT22;499;42.648;23.270;2023-11-21T10:49:06;9.90;31.40
1021;DHT22;499;42.648;23.270;2023-11-21T10:52:06;9.90;30.40
1021;DHT22;499;42.648;23.270;2023-11-21T10:55:03;10.00;29.30
1021;DHT22;499;42.648;23.270;2023-11-21T11:01:35;10.10;29.70
1021;DHT22;499;42.648;23.270;2023-11-21T11:04:58;10.30;27.30
1021;DHT22;499;42.648;23.270;2023-11-21T11:07:52;10.20;27.50
1021;DHT22;499;42.648;23.270;2023-11-21T11:11:02;10.30;26.30
1021;DHT22;499;42.648;23.270;2023-11-21T11:13:47;10.20;25.70
1021;DHT22;499;42.648;23.270;2023-11-21T11:16:40;10.10;26.70
1021;DHT22;499;42.648;23.270;2023-11-21T11:19:20;10.10;27.10
1021;DHT22;499;42.648;23.270;2023-11-21T11:22:03;10.00;29.50
1021;DHT22;499;42.648;23.270;2023-11-21T11:25:25;10.10;28.60
1021;DHT22;499;42.648;23.270;2023-11-21T11:28:15;10.20;27.20
1021;DHT22;499;42.648;23.270;2023-11-21T11:31:05;10.30;26.60
1021;DHT22;499;42.648;23.270;2023-11-21T11:34:04;10.30;26.70
1021;DHT22;499;42.648;23.270;2023-11-21T11:36:44;10.20;26.60
1021;DHT22;499;42.648;23.270;2023-11-21T11:39:30;10.40;27.20
1021;DHT22;499;42.648;23.270;2023-11-21T11:42:04;10.50;27.40
1021;DHT22;499;42.648;23.270;2023-11-21T11:44:51;10.60;27.50
1021;DHT22;499;42.648;23.270;2023-11-21T11:47:23;10.50;27.40
1021;DHT22;499;42.648;23.270;2023-11-21T11:50:09;10.40;29.40
1021;DHT22;499;42.648;23.270;2023-11-21T11:53:12;10.40;26.10
1021;DHT22;499;42.648;23.270;2023-11-21T12:03:08;10.10;30.20
1021;DHT22;499;42.648;23.270;2023-11-21T12:05:46;10.00;31.00
1021;DHT22;499;42.648;23.270;2023-11-21T12:09:22;9.80;37.30
1021;DHT22;499;42.648;23.270;2023-11-21T12:12:02;10.80;35.60
1021;DHT22;499;42.648;23.270;2023-11-21T12:14:51;9.60;36.70
1021;DHT22;499;42.648;23.270;2023-11-21T12:17:37;9.70;39.80
1021;DHT22;499;42.648;23.270;2023-11-21T12:20:21;9.60;44.40
1021;DHT22;499;42.648;23.270;2023-11-21T12:23:24;9.50;42.60
1021;DHT22;499;42.648;23.270;2023-11-21T12:26:17;9.40;40.90
1021;DHT22;499;42.648;23.270;2023-11-21T12:29:21;9.40;46.50
1021;DHT22;499;42.648;23.270;2023-11-21T12:32:19;9.20;47.80
1021;DHT22;499;42.648;23.270;2023-11-21T12:35:22;9.20;44.80
1021;DHT22;499;42.648;23.270;2023-11-21T12:38:09;9.20;48.80
1021;DHT22;499;42.648;23.270;2023-11-21T12:41:08;9.20;50.00
1021;DHT22;499;42.648;23.270;2023-11-21T12:43:52;9.20;48.90
1021;DHT22;499;42.648;23.270;2023-11-21T12:46:28;9.40;45.00
1021;DHT22;499;42.648;23.270;2023-11-21T12:49:01;9.50;43.40
1021;DHT22;499;42.648;23.270;2023-11-21T12:51:40;9.50;42.20
1021;DHT22;499;42.648;23.270;2023-11-21T12:54:52;9.30;44.40
1021;DHT22;499;42.648;23.270;2023-11-21T12:58:07;9.20;47.20
1021;DHT22;499;42.648;23.270;2023-11-21T13:00:51;9.20;46.10
1021;DHT22;499;42.648;23.270;2023-11-21T13:03:36;9.40;49.50
1021;DHT22;499;42.648;23.270;2023-11-21T13:06:15;9.60;51.50
1021;DHT22;499;42.648;23.270;2023-11-21T13:08:45;9.60;47.40
1021;DHT22;499;42.648;23.270;2023-11-21T13:11:20;9.60;49.10
1021;DHT22;499;42.648;23.270;2023-11-21T13:13:52;9.40;45.50
1021;DHT22;499;42.648;23.270;2023-11-21T13:16:22;9.40;46.90
1021;DHT22;499;42.648;23.270;2023-11-21T13:18:56;9.50;47.90
1021;DHT22;499;42.648;23.270;2023-11-21T13:21:39;9.60;49.60
1021;DHT22;499;42.648;23.270;2023-11-21T13:24:22;9.60;51.00
1021;DHT22;499;42.648;23.270;2023-11-21T13:27:09;9.50;51.10
1021;DHT22;499;42.648;23.270;2023-11-21T13:30:09;9.30;50.70
1021;DHT22;499;42.648;23.270;2023-11-21T13:32:54;9.20;52.50
1021;DHT22;499;42.648;23.270;2023-11-21T13:35:29;9.10;54.40
1021;DHT22;499;42.648;23.270;2023-11-21T13:38:05;9.20;56.20
1021;DHT22;499;42.648;23.270;2023-11-21T13:41:02;9.40;55.10
1021;DHT22;499;42.648;23.270;2023-11-21T13:43:38;9.50;55.40
1021;DHT22;499;42.648;23.270;2023-11-21T13:46:25;9.70;54.90
1021;DHT22;499;42.648;23.270;2023-11-21T13:49:00;9.60;55.90
1021;DHT22;499;42.648;23.270;2023-11-21T13:51:37;9.70;57.60
1021;DHT22;499;42.648;23.270;2023-11-21T13:54:21;9.80;56.80
1021;DHT22;499;42.648;23.270;2023-11-21T13:56:57;9.80;57.80
1021;DHT22;499;42.648;23.270;2023-11-21T13:59:35;9.70;57.50
1021;DHT22;499;42.648;23.270;2023-11-21T14:02:30;9.80;59.40
1021;DHT22;499;42.648;23.270;2023-11-21T14:05:17;9.90;59.40
1021;DHT22;499;42.648;23.270;2023-11-21T14:08:14;10.00;51.50
1021;DHT22;499;42.648;23.270;2023-11-21T14:10:50;10.00;50.90
1021;DHT22;499;42.648;23.270;2023-11-21T14:14:04;10.00;53.50
1021;DHT22;499;42.648;23.270;2023-11-21T14:16:54;9.80;56.30
1021;DHT22;499;42.648;23.270;2023-11-21T14:19:26;9.60;56.20
1021;DHT22;499;42.648;23.270;2023-11-21T14:22:10;9.40;56.90
1021;DHT22;499;42.648;23.270;2023-11-21T14:24:59;9.40;59.20
1021;DHT22;499;42.648;23.270;2023-11-21T14:27:59;9.50;59.20
1021;DHT22;499;42.648;23.270;2023-11-21T14:30:58;9.60;59.20
1021;DHT22;499;42.648;23.270;2023-11-21T14:36:31;9.70;59.30
1021;DHT22;499;42.648;23.270;2023-11-21T14:39:01;9.70;59.30
1021;DHT22;499;42.648;23.270;2023-11-21T14:41:33;9.60;59.80
1021;DHT22;499;42.648;23.270;2023-11-21T14:44:18;9.60;62.30
1021;DHT22;499;42.648;23.270;2023-11-21T14:46:55;9.60;63.60
1021;DHT22;499;42.648;23.270;2023-11-21T14:49:35;9.70;63.00
1021;DHT22;499;42.648;23.270;2023-11-21T14:52:35;9.70;64.10
1021;DHT22;499;42.648;23.270;2023-11-21T14:55:20;9.70;64.20
1021;DHT22;499;42.648;23.270;2023-11-21T14:58:20;9.70;64.20
1021;DHT22;499;42.648;23.270;2023-11-21T15:00:55;9.60;61.90
1021;DHT22;499;42.648;23.270;2023-11-21T15:03:38;9.50;63.00
1021;DHT22;499;42.648;23.270;2023-11-21T15:06:34;9.40;63.90
1021;DHT22;499;42.648;23.270;2023-11-21T15:09:35;9.30;63.90
1021;DHT22;499;42.648;23.270;2023-11-21T15:12:11;9.20;66.40
1021;DHT22;499;42.648;23.270;2023-11-21T15:14:50;9.10;63.60
1021;DHT22;499;42.648;23.270;2023-11-21T15:17:43;9.00;63.50
1021;DHT22;499;42.648;23.270;2023-11-21T15:20:22;9.00;66.90
1021;DHT22;499;42.648;23.270;2023-11-21T15:22:55;8.90;63.40
1021;DHT22;499;42.648;23.270;2023-11-21T15:25:27;8.70;60.50
1021;DHT22;499;42.648;23.270;2023-11-21T15:27:58;8.70;64.60
1021;DHT22;499;42.648;23.270;2023-11-21T15:30:28;8.80;63.70
1021;DHT22;499;42.648;23.270;2023-11-21T15:32:58;8.80;64.20
1021;DHT22;499;42.648;23.270;2023-11-21T15:35:31;8.80;61.80
1021;DHT22;499;42.648;23.270;2023-11-21T15:38:04;8.60;63.10
1021;DHT22;499;42.648;23.270;2023-11-21T15:40:38;8.50;63.00
1021;DHT22;499;42.648;23.270;2023-11-21T15:43:27;8.60;65.10
1021;DHT22;499;42.648;23.270;2023-11-21T15:45:57;8.50;60.80
1021;DHT22;499;42.648;23.270;2023-11-21T15:48:32;8.40;63.00
1021;DHT22;499;42.648;23.270;2023-11-21T15:51:25;8.30;62.20
1021;DHT22;499;42.648;23.270;2023-11-21T15:54:15;8.30;61.10
1021;DHT22;499;42.648;23.270;2023-11-21T15:57:10;7.20;59.70
1021;DHT22;499;42.648;23.270;2023-11-21T15:59:55;8.40;63.40
1021;DHT22;499;42.648;23.270;2023-11-21T16:02:43;8.40;60.50
1021;DHT22;499;42.648;23.270;2023-11-21T16:05:30;8.40;57.90
1021;DHT22;499;42.648;23.270;2023-11-21T16:11:16;8.20;63.40
1021;DHT22;499;42.648;23.270;2023-11-21T16:14:00;8.10;65.30
1021;DHT22;499;42.648;23.270;2023-11-21T16:16:34;8.00;66.60
1021;DHT22;499;42.648;23.270;2023-11-21T16:19:25;8.00;68.30
1021;DHT22;499;42.648;23.270;2023-11-21T16:21:55;8.10;71.00
1021;DHT22;499;42.648;23.270;2023-11-21T16:24:30;8.00;68.00
1021;DHT22;499;42.648;23.270;2023-11-21T16:27:35;8.10;72.30
1021;DHT22;499;42.648;23.270;2023-11-21T16:30:24;7.80;73.60
1021;DHT22;499;42.648;23.270;2023-11-21T16:33:03;7.10;76.20
1021;DHT22;499;42.648;23.270;2023-11-21T16:35:37;7.90;76.90
1021;DHT22;499;42.648;23.270;2023-11-21T16:38:35;7.90;78.30
1021;DHT22;499;42.648;23.270;2023-11-21T16:41:21;7.90;77.40
1021;DHT22;499;42.648;23.270;2023-11-21T16:44:06;7.90;77.90
1021;DHT22;499;42.648;23.270;2023-11-21T16:47:25;7.80;76.80
1021;DHT22;499;42.648;23.270;2023-11-21T16:49:58;7.70;78.50
1021;DHT22;499;42.648;23.270;2023-11-21T16:52:28;7.60;80.10
1021;DHT22;499;42.648;23.270;2023-11-21T16:55:05;7.70;80.40
1021;DHT22;499;42.648;23.270;2023-11-21T16:57:43;7.60;78.60
1021;DHT22;499;42.648;23.270;2023-11-21T17:00:21;7.60;79.10
1021;DHT22;499;42.648;23.270;2023-11-21T17:03:03;7.60;79.40
1021;DHT22;499;42.648;23.270;2023-11-21T17:05:55;7.50;76.60
1021;DHT22;499;42.648;23.270;2023-11-21T17:08:51;7.40;81.00
1021;DHT22;499;42.648;23.270;2023-11-21T17:11:24;7.20;80.80
1021;DHT22;499;42.648;23.270;2023-11-21T17:14:05;7.00;84.10
1021;DHT22;499;42.648;23.270;2023-11-21T17:17:06;7.00;86.50
1021;DHT22;499;42.648;23.270;2023-11-21T17:29:26;7.10;85.40
1021;DHT22;499;42.648;23.270;2023-11-21T17:32:00;7.10;87.50
1021;DHT22;499;42.648;23.270;2023-11-21T17:34:51;7.10;85.40
1021;DHT22;499;42.648;23.270;2023-11-21T17:37:35;7.10;87.00
1021;DHT22;499;42.648;23.270;2023-11-21T17:40:37;7.10;85.40
1021;DHT22;499;42.648;23.270;2023-11-21T17:43:44;7.00;86.50
1021;DHT22;499;42.648;23.270;2023-11-21T17:46:43;6.90;87.10
1021;DHT22;499;42.648;23.270;2023-11-21T17:49:20;6.80;90.20
1021;DHT22;499;42.648;23.270;2023-11-21T17:52:12;6.80;90.30
1021;DHT22;499;42.648;23.270;2023-11-21T17:54:59;6.90;91.20
1021;DHT22;499;42.648;23.270;2023-11-21T17:57:45;6.80;90.70
1021;DHT22;499;42.648;23.270;2023-11-21T18:00:48;6.70;90.50
1021;DHT22;499;42.648;23.270;2023-11-21T18:03:22;6.70;90.40
1021;DHT22;499;42.648;23.270;2023-11-21T18:06:13;6.60;91.70
1021;DHT22;499;42.648;23.270;2023-11-21T18:09:32;6.50;91.70
1021;DHT22;499;42.648;23.270;2023-11-21T18:16:01;6.50;93.20
1021;DHT22;499;42.648;23.270;2023-11-21T18:19:23;6.40;93.60
1021;DHT22;499;42.648;23.270;2023-11-21T18:22:40;6.40;94.90
1021;DHT22;499;42.648;23.270;2023-11-21T18:25:51;6.50;95.20
1021;DHT22;499;42.648;23.270;2023-11-21T18:28:38;6.50;95.10
1021;DHT22;499;42.648;23.270;2023-11-21T18:31:19;6.50;95.50
1021;DHT22;499;42.648;23.270;2023-11-21T18:34:01;6.60;94.80
1021;DHT22;499;42.648;23.270;2023-11-21T18:36:35;6.60;94.00
1021;DHT22;499;42.648;23.270;2023-11-21T18:39:14;6.60;93.70
1021;DHT22;499;42.648;23.270;2023-11-21T18:41:55;6.60;93.70
1021;DHT22;499;42.648;23.270;2023-11-21T18:44:43;6.60;93.80
1021;DHT22;499;42.648;23.270;2023-11-21T18:47:35;5.60;93.30
1021;DHT22;499;42.648;23.270;2023-11-21T18:50:26;6.60;94.20
1021;DHT22;499;42.648;23.270;2023-11-21T18:53:17;6.60;93.10
1021;DHT22;499;42.648;23.270;2023-11-21T18:55:51;6.60;94.20
1021;DHT22;499;42.648;23.270;2023-11-21T18:58:22;6.60;94.60
1021;DHT22;499;42.648;23.270;2023-11-21T19:01:02;6.60;94.70
1021;DHT22;499;42.648;23.270;2023-11-21T19:03:57;6.50;94.50
1021;DHT22;499;42.648;23.270;2023-11-21T19:06:42;6.60;93.50